Time;durP1;ratioP1;P1;durP2;ratioP2;P2;SDS_P1;SDS_P2;PMS_P1;PMS_P2;Temp;Humidity;BMP_temperature;BMP_pressure;BME280_temperature;BME280_humidity;BME280_pressure;Samples;Min_cycle;Max_cycle;Signal;HPM_P1;HPM_P2
2021/01/11 00:01:20;;;;;;;0.55;0.55;;;20.10;34.90;;;;;;4829361;29;20034;-70
2021/01/11 00:03:46;;;;;;;4.95;1.45;;;20.10;34.90;;;;;;4795775;29;20475;-70
2021/01/11 00:06:12;;;;;;;0.28;0.28;;;20.10;35.00;;;;;;4819792;29;20125;-70
2021/01/11 00:08:37;;;;;;;0.30;0.30;;;20.00;34.90;;;;;;4832335;29;20042;-70
2021/01/11 00:11:03;;;;;;;1.65;0.75;;;20.00;35.00;;;;;;4839508;29;20030;-69
2021/01/11 00:13:28;;;;;;;0.25;0.15;;;20.00;35.00;;;;;;4827115;29;20045;-69
2021/01/11 00:15:54;;;;;;;1.25;0.40;;;20.00;35.10;;;;;;4848207;29;20133;-71
2021/01/11 00:18:19;;;;;;;1.85;0.40;;;20.00;35.10;;;;;;4834284;29;20067;-71
2021/01/11 00:20:45;;;;;;;0.60;0.55;;;20.00;35.10;;;;;;4830125;29;20054;-70
2021/01/11 00:23:11;;;;;;;0.30;0.30;;;20.00;35.10;;;;;;4838648;29;20070;-70
2021/01/11 00:25:37;;;;;;;0.85;0.30;;;19.90;35.10;;;;;;4806722;29;20044;-70
2021/01/11 00:28:03;;;;;;;1.65;0.85;;;19.90;35.10;;;;;;4838767;29;20098;-69
2021/01/11 00:30:32;;;;;;;1.33;0.65;;;19.90;35.00;;;;;;4835114;29;20030;-69
2021/01/11 00:32:57;;;;;;;1.27;0.65;;;19.90;35.70;;;;;;4818653;29;20046;-70
2021/01/11 00:35:23;;;;;;;1.48;0.75;;;19.90;35.10;;;;;;4811135;29;20479;-70
2021/01/11 00:37:48;;;;;;;3.40;0.93;;;19.90;35.00;;;;;;4816524;29;20029;-70
2021/01/11 00:40:14;;;;;;;0.50;0.50;;;19.90;35.10;;;;;;4833692;29;20456;-69
2021/01/11 00:42:39;;;;;;;1.20;0.88;;;19.90;35.10;;;;;;4842553;29;20038;-69
2021/01/11 00:45:23;;;;;;;0.75;0.30;;;19.90;35.10;;;;;;4825275;29;20109;-70
2021/01/11 00:47:55;;;;;;;3.42;0.98;;;19.90;35.00;;;;;;4812937;29;20038;-70
2021/01/11 00:50:21;;;;;;;0.47;0.47;;;19.90;35.10;;;;;;4824987;29;20031;-70
2021/01/11 00:52:46;;;;;;;0.82;0.82;;;19.90;35.00;;;;;;4838245;29;20449;-70
2021/01/11 00:55:12;;;;;;;0.32;0.32;;;19.90;35.10;;;;;;4811834;29;20066;-70
2021/01/11 00:57:44;;;;;;;0.60;0.60;;;19.90;35.10;;;;;;4810534;29;20039;-70
2021/01/11 01:00:10;;;;;;;0.80;0.80;;;19.90;35.10;;;;;;4804227;29;20064;-69
2021/01/11 01:02:36;;;;;;;1.35;0.95;;;19.80;35.00;;;;;;4830465;29;20052;-69
2021/01/11 01:05:10;;;;;;;4.63;0.20;;;19.80;35.10;;;;;;4823729;29;20507;-69
2021/01/11 01:07:40;;;;;;;0.52;0.43;;;19.90;35.00;;;;;;4787300;29;20054;-70
2021/01/11 01:10:07;;;;;;;1.02;0.47;;;19.80;35.10;;;;;;4804296;29;20027;-69
2021/01/11 01:12:32;;;;;;;0.30;0.30;;;19.80;35.10;;;;;;4807077;29;20503;-69
2021/01/11 01:14:58;;;;;;;0.30;0.22;;;19.80;35.20;;;;;;4798046;29;20027;-70
2021/01/11 01:17:24;;;;;;;1.65;0.80;;;19.80;35.20;;;;;;4782866;29;20030;-69
2021/01/11 01:19:49;;;;;;;0.57;0.47;;;19.80;35.20;;;;;;4809972;29;20042;-69
2021/01/11 01:22:15;;;;;;;0.35;0.35;;;19.80;35.20;;;;;;4792891;29;20473;-69
2021/01/11 01:24:40;;;;;;;0.25;0.25;;;19.80;35.30;;;;;;4797714;29;20058;-70
2021/01/11 01:27:06;;;;;;;0.70;0.32;;;19.80;35.20;;;;;;4816323;29;20520;-70
2021/01/11 01:29:31;;;;;;;0.75;0.75;;;19.80;35.30;;;;;;4802144;29;20515;-69
2021/01/11 01:31:57;;;;;;;0.43;0.43;;;19.70;35.30;;;;;;4816759;29;20483;-70
2021/01/11 01:34:23;;;;;;;0.20;0.20;;;19.80;35.30;;;;;;4819001;29;20049;-70
2021/01/11 01:36:48;;;;;;;0.28;0.28;;;19.70;35.30;;;;;;4818368;29;20046;-69
2021/01/11 01:39:14;;;;;;;0.10;0.10;;;19.70;35.30;;;;;;4806705;29;20038;-70
2021/01/11 01:41:39;;;;;;;1.10;0.85;;;19.70;35.30;;;;;;4793097;29;20038;-71
2021/01/11 01:44:05;;;;;;;0.63;0.30;;;19.70;35.30;;;;;;4782023;29;20562;-71
2021/01/11 01:46:31;;;;;;;0.17;0.17;;;19.70;35.40;;;;;;4763664;30;20062;-71
2021/01/11 01:48:57;;;;;;;0.28;0.28;;;19.70;35.30;;;;;;4813416;29;20046;-71
2021/01/11 01:51:40;;;;;;;0.10;0.10;;;19.60;35.30;;;;;;4813400;29;20043;-74
2021/01/11 01:54:06;;;;;;;0.30;0.30;;;19.60;35.40;;;;;;4795177;29;20453;-73
2021/01/11 01:56:32;;;;;;;1.38;0.38;;;19.60;35.40;;;;;;4802597;29;20109;-73
2021/01/11 01:58:57;;;;;;;0.30;0.30;;;19.60;35.40;;;;;;4784507;29;20043;-73
2021/01/11 02:01:23;;;;;;;0.75;0.52;;;19.60;35.40;;;;;;4809500;29;20069;-74
2021/01/11 02:03:49;;;;;;;0.20;0.20;;;19.60;35.60;;;;;;4821882;29;20035;-73
2021/01/11 02:06:14;;;;;;;3.65;0.50;;;19.60;35.50;;;;;;4812790;29;20058;-74
2021/01/11 02:08:55;;;;;;;0.57;0.35;;;19.60;35.50;;;;;;4797093;29;20035;-72
2021/01/11 02:11:28;;;;;;;1.30;1.20;;;19.50;35.40;;;;;;4813842;29;20534;-73
2021/01/11 02:14:19;;;;;;;0.10;0.10;;;19.50;35.40;;;;;;4810904;29;20508;-73
2021/01/11 02:17:21;;;;;;;0.30;0.30;;;19.50;35.50;;;;;;4750822;30;20110;-74
2021/01/11 02:20:17;;;;;;;0.70;0.10;;;19.50;35.50;;;;;;4672982;30;20051;-74
2021/01/11 02:23:01;;;;;;;1.20;0.77;;;19.50;35.50;;;;;;4675123;30;20046;-74
2021/01/11 02:25:40;;;;;;;0.15;0.15;;;19.50;35.50;;;;;;4665402;30;20523;-74
2021/01/11 02:28:20;;;;;;;0.30;0.30;;;19.50;35.50;;;;;;4668110;30;20045;-74
2021/01/11 02:30:46;;;;;;;0.55;0.52;;;19.50;35.40;;;;;;4668185;30;20046;-74
2021/01/11 02:33:12;;;;;;;0.82;0.55;;;19.50;35.50;;;;;;4671864;30;20046;-74
2021/01/11 02:35:47;;;;;;;1.20;0.77;;;19.50;35.40;;;;;;4663188;30;20575;-73
2021/01/11 02:38:13;;;;;;;0.30;0.20;;;19.50;35.50;;;;;;4666306;30;20042;-73
2021/01/11 02:40:39;;;;;;;2.90;1.10;;;19.50;36.10;;;;;;4664281;30;20054;-75
2021/01/11 02:43:04;;;;;;;0.88;0.20;;;19.50;35.40;;;;;;4670306;30;20085;-73
2021/01/11 02:45:30;;;;;;;0.20;0.20;;;19.50;35.50;;;;;;4670316;30;20042;-75
2021/01/11 02:48:05;;;;;;;0.00;0.00;;;19.50;35.50;;;;;;4675669;30;20061;-74
2021/01/11 02:50:33;;;;;;;0.70;0.32;;;19.50;35.60;;;;;;4672723;30;20038;-75
2021/01/11 02:53:22;;;;;;;0.00;0.00;;;19.40;35.50;;;;;;4661685;30;20486;-75
2021/01/11 02:55:50;;;;;;;0.10;0.10;;;19.50;35.60;;;;;;4767052;29;20538;-75
2021/01/11 02:58:44;;;;;;;0.15;0.15;;;19.50;35.60;;;;;;4789354;29;20031;-75
2021/01/11 03:01:09;;;;;;;0.30;0.30;;;19.50;35.60;;;;;;4813696;29;20456;-75
2021/01/11 03:03:35;;;;;;;0.13;0.13;;;19.50;35.60;;;;;;4796204;29;20042;-75
2021/01/11 03:06:00;;;;;;;0.40;0.40;;;19.50;35.60;;;;;;4795668;29;20047;-75
2021/01/11 03:08:26;;;;;;;0.47;0.43;;;19.50;35.60;;;;;;4800295;29;20049;-73
2021/01/11 03:10:51;;;;;;;0.10;0.10;;;19.40;35.50;;;;;;4823891;29;20030;-74
2021/01/11 03:13:18;;;;;;;0.57;0.57;;;19.40;35.60;;;;;;4829932;29;20042;-73
2021/01/11 03:15:44;;;;;;;0.10;0.10;;;19.40;35.60;;;;;;4813779;29;20030;-74
2021/01/11 03:18:10;;;;;;;0.57;0.55;;;19.40;35.60;;;;;;4837845;29;20069;-73
2021/01/11 03:20:35;;;;;;;0.40;0.40;;;19.40;35.60;;;;;;4833629;29;20051;-74
2021/01/11 03:23:10;;;;;;;0.20;0.20;;;19.40;35.60;;;;;;4787964;29;20047;-73
2021/01/11 03:25:36;;;;;;;0.30;0.13;;;19.40;35.70;;;;;;4824607;29;20700;-74
2021/01/11 03:28:03;;;;;;;0.50;0.30;;;19.40;35.70;;;;;;4811740;29;20050;-74
2021/01/11 03:30:29;;;;;;;0.03;0.03;;;19.40;35.70;;;;;;4823337;29;20040;-74
2021/01/11 03:32:54;;;;;;;0.20;0.20;;;19.40;35.70;;;;;;4827750;29;20114;-75
2021/01/11 03:35:20;;;;;;;0.13;0.13;;;19.30;35.70;;;;;;4823717;29;20035;-74
2021/01/11 03:37:45;;;;;;;0.52;0.52;;;19.30;35.70;;;;;;4831093;29;20454;-75
2021/01/11 03:40:11;;;;;;;0.20;0.17;;;19.30;35.80;;;;;;4812557;29;20053;-75
2021/01/11 03:42:38;;;;;;;0.20;0.20;;;19.30;35.80;;;;;;4791038;29;20038;-75
2021/01/11 03:45:05;;;;;;;0.00;0.00;;;19.30;35.80;;;;;;4796763;29;20069;-75
2021/01/11 03:47:30;;;;;;;0.55;0.47;;;19.30;35.80;;;;;;4794233;29;20052;-75
2021/01/11 03:49:57;;;;;;;0.90;0.32;;;19.30;35.80;;;;;;4814570;29;20418;-75
2021/01/11 03:52:24;;;;;;;0.55;0.55;;;19.30;35.70;;;;;;4834066;29;20411;-76
2021/01/11 03:54:49;;;;;;;0.63;0.40;;;19.30;35.80;;;;;;4810531;29;20026;-74
2021/01/11 03:57:15;;;;;;;0.85;0.13;;;19.30;35.70;;;;;;4825729;29;20061;-75
2021/01/11 03:59:40;;;;;;;1.95;0.40;;;19.30;35.70;;;;;;4828713;29;20085;-75
2021/01/11 04:02:06;;;;;;;1.15;0.60;;;19.30;35.70;;;;;;4828912;29;20034;-74
2021/01/11 04:04:31;;;;;;;1.95;0.90;;;19.30;35.70;;;;;;4815706;29;20129;-75
2021/01/11 04:06:57;;;;;;;8.15;1.42;;;19.30;35.60;;;;;;4825352;29;20066;-75
2021/01/11 04:09:34;;;;;;;2.55;0.73;;;19.30;35.70;;;;;;4838218;29;20026;-73
2021/01/11 04:12:00;;;;;;;0.22;0.17;;;19.30;35.60;;;;;;4814378;29;20050;-73
2021/01/11 04:14:26;;;;;;;0.08;0.08;;;19.30;35.60;;;;;;4823031;29;20026;-73
2021/01/11 04:16:52;;;;;;;0.20;0.20;;;19.30;35.70;;;;;;4808284;29;20057;-73
2021/01/11 04:19:17;;;;;;;0.73;0.73;;;19.30;35.70;;;;;;4810226;29;20034;-73
2021/01/11 04:21:43;;;;;;;0.47;0.47;;;19.30;35.60;;;;;;4795023;29;20037;-75
2021/01/11 04:24:09;;;;;;;0.30;0.30;;;19.20;35.60;;;;;;4796992;29;20108;-73
2021/01/11 04:26:34;;;;;;;0.40;0.40;;;19.20;35.60;;;;;;4823571;29;20426;-73
2021/01/11 04:29:00;;;;;;;0.05;0.05;;;19.20;35.70;;;;;;4819300;29;20034;-73
2021/01/11 04:31:25;;;;;;;0.03;0.03;;;19.20;36.30;;;;;;4808704;29;20065;-74
2021/01/11 04:33:54;;;;;;;0.45;0.28;;;19.20;35.70;;;;;;4835485;29;20035;-74
2021/01/11 04:36:20;;;;;;;0.55;0.55;;;19.20;35.80;;;;;;4826478;29;20491;-73
2021/01/11 04:38:54;;;;;;;0.10;0.03;;;19.20;35.80;;;;;;4831638;29;20026;-74
2021/01/11 04:41:20;;;;;;;0.30;0.30;;;19.20;35.80;;;;;;4832013;29;20095;-73
2021/01/11 04:43:47;;;;;;;0.80;0.50;;;19.20;35.90;;;;;;4793142;29;20034;-74
2021/01/11 04:46:18;;;;;;;0.20;0.13;;;19.20;35.90;;;;;;4779756;29;20065;-74
2021/01/11 04:48:59;;;;;;;0.70;0.50;;;19.20;35.90;;;;;;4813728;29;20506;-73
2021/01/11 04:51:25;;;;;;;0.47;0.47;;;19.10;35.90;;;;;;4827913;29;20109;-73
2021/01/11 04:53:50;;;;;;;0.32;0.32;;;19.10;35.80;;;;;;4823919;29;20039;-74
2021/01/11 04:56:16;;;;;;;0.73;0.50;;;19.10;35.80;;;;;;4807077;29;20109;-73
2021/01/11 04:59:02;;;;;;;1.17;0.65;;;19.10;35.80;;;;;;4838869;29;20022;-74
2021/01/11 05:01:28;;;;;;;0.22;0.20;;;19.10;35.80;;;;;;4822905;29;20037;-72
2021/01/11 05:04:00;;;;;;;0.55;0.52;;;19.00;35.70;;;;;;4841619;29;20053;-74
2021/01/11 05:06:26;;;;;;;0.73;0.40;;;19.10;35.90;;;;;;4823074;29;20122;-73
2021/01/11 05:08:52;;;;;;;1.25;0.32;;;19.10;35.80;;;;;;4800427;29;20038;-73
2021/01/11 05:11:17;;;;;;;0.70;0.60;;;19.10;35.70;;;;;;4821550;29;20057;-73
2021/01/11 05:13:44;;;;;;;0.38;0.20;;;19.10;35.80;;;;;;4786845;29;20035;-74
2021/01/11 05:16:11;;;;;;;0.20;0.20;;;19.20;35.90;;;;;;4811360;29;20042;-74
2021/01/11 05:18:36;;;;;;;0.43;0.43;;;19.30;35.80;;;;;;4815412;29;20035;-73
2021/01/11 05:21:02;;;;;;;0.10;0.10;;;19.30;35.60;;;;;;4829872;29;20045;-72
2021/01/11 05:23:34;;;;;;;0.00;0.00;;;19.40;35.50;;;;;;4825290;29;20052;-72
2021/01/11 05:25:59;;;;;;;0.80;0.32;;;19.50;35.40;;;;;;4791630;29;20495;-72
2021/01/11 05:28:25;;;;;;;0.63;0.63;;;19.60;35.20;;;;;;4810699;29;20040;-75
2021/01/11 05:30:54;;;;;;;0.00;0.00;;;19.70;35.10;;;;;;4814525;29;20057;-72
2021/01/11 05:33:24;;;;;;;0.22;0.22;;;19.80;35.00;;;;;;4828014;29;20030;-73
2021/01/11 05:36:10;;;;;;;0.05;0.05;;;19.90;35.60;;;;;;4818107;29;20070;-73
2021/01/11 05:38:37;;;;;;;0.13;0.10;;;20.00;34.80;;;;;;4823674;29;20058;-73
2021/01/11 05:41:39;;;;;;;0.10;0.10;;;20.10;34.60;;;;;;4800960;29;20119;-73
2021/01/11 05:44:14;;;;;;;1.02;0.45;;;20.20;34.50;;;;;;4767958;30;20043;-73
2021/01/11 05:46:40;;;;;;;0.30;0.30;;;20.30;34.30;;;;;;4749043;30;20174;-74
2021/01/11 05:49:09;;;;;;;0.20;0.20;;;20.40;34.20;;;;;;4735707;30;20044;-74
2021/01/11 05:51:35;;;;;;;0.00;0.00;;;20.50;34.10;;;;;;4749334;30;20055;-74
2021/01/11 05:54:01;;;;;;;2.35;0.75;;;20.60;34.00;;;;;;4752494;30;20059;-74
2021/01/11 05:56:27;;;;;;;1.85;0.45;;;20.70;33.90;;;;;;4766307;30;20039;-73
2021/01/11 05:59:06;;;;;;;0.28;0.28;;;20.70;33.80;;;;;;4752867;30;20111;-72
2021/01/11 06:01:32;;;;;;;0.10;0.10;;;20.80;33.70;;;;;;4749064;30;20082;-73
2021/01/11 06:03:57;;;;;;;0.32;0.30;;;20.90;33.70;;;;;;4758943;30;20146;-72
2021/01/11 06:06:24;;;;;;;0.17;0.17;;;20.90;33.60;;;;;;4737566;30;20545;-71
2021/01/11 06:08:51;;;;;;;0.30;0.30;;;20.90;33.60;;;;;;4749440;30;20237;-71
2021/01/11 06:11:21;;;;;;;1.35;0.47;;;20.90;33.60;;;;;;4739036;30;20163;-70
2021/01/11 06:13:48;;;;;;;0.08;0.03;;;20.90;33.60;;;;;;4745699;30;20052;-70
2021/01/11 06:16:18;;;;;;;1.38;0.30;;;20.90;33.60;;;;;;4754444;30;20063;-71
2021/01/11 06:18:45;;;;;;;0.00;0.00;;;21.00;33.60;;;;;;4775501;29;20038;-70
2021/01/11 06:21:11;;;;;;;0.63;0.50;;;21.00;33.60;;;;;;4793246;29;20047;-70
2021/01/11 06:23:38;;;;;;;0.85;0.47;;;21.00;33.70;;;;;;4803560;29;20392;-70
2021/01/11 06:26:34;;;;;;;0.35;0.22;;;21.00;33.70;;;;;;4826829;29;20064;-70
2021/01/11 06:29:00;;;;;;;9.40;2.07;;;21.00;33.70;;;;;;4808653;29;20046;-70
2021/01/11 06:31:27;;;;;;;0.00;0.00;;;21.00;33.70;;;;;;4795233;29;20081;-70
2021/01/11 06:33:52;;;;;;;0.20;0.20;;;20.90;33.60;;;;;;4804291;29;20030;-70
2021/01/11 06:36:29;;;;;;;0.20;0.20;;;21.00;33.70;;;;;;4811533;29;20049;-69
2021/01/11 06:38:55;;;;;;;0.00;0.00;;;20.90;33.70;;;;;;4811738;29;20027;-70
2021/01/11 06:41:23;;;;;;;0.00;0.00;;;20.90;33.70;;;;;;4791697;29;20125;-70
2021/01/11 06:43:50;;;;;;;0.40;0.40;;;20.90;33.80;;;;;;4806644;29;20426;-70
2021/01/11 06:46:28;;;;;;;0.55;0.20;;;20.90;33.80;;;;;;4784678;29;20050;-71
2021/01/11 06:49:01;;;;;;;0.80;0.20;;;21.00;33.90;;;;;;4827297;29;20085;-71
2021/01/11 06:51:42;;;;;;;0.10;0.10;;;21.00;34.00;;;;;;4807203;29;20056;-70
2021/01/11 06:54:20;;;;;;;0.30;0.30;;;21.00;33.90;;;;;;4814518;29;20027;-70
2021/01/11 06:56:45;;;;;;;0.65;0.65;;;21.00;33.90;;;;;;4803094;29;20038;-71
2021/01/11 06:59:17;;;;;;;0.00;0.00;;;21.00;33.90;;;;;;4803525;29;20076;-76
2021/01/11 07:01:44;;;;;;;0.13;0.13;;;21.00;33.90;;;;;;4801868;29;20479;-75
2021/01/11 07:04:11;;;;;;;1.00;0.85;;;21.00;33.90;;;;;;4805164;29;20026;-76
2021/01/11 07:06:45;;;;;;;0.10;0.10;;;21.10;33.90;;;;;;4812940;29;20061;-76
2021/01/11 07:09:18;;;;;;;0.35;0.10;;;21.10;33.90;;;;;;4813608;29;20030;-76
2021/01/11 07:11:48;;;;;;;0.08;0.08;;;21.10;33.90;;;;;;4800674;29;20103;-72
2021/01/11 07:14:14;;;;;;;0.03;0.03;;;21.10;33.90;;;;;;4797857;29;20045;-72
2021/01/11 07:16:49;;;;;;;0.08;0.08;;;21.20;33.80;;;;;;4804405;29;20038;-72
2021/01/11 07:19:21;;;;;;;0.20;0.20;;;21.20;33.80;;;;;;4796086;29;20583;-75
2021/01/11 07:21:47;;;;;;;1.20;0.75;;;21.20;33.70;;;;;;4815813;29;20037;-75
2021/01/11 07:24:13;;;;;;;0.00;0.00;;;21.20;33.70;;;;;;4811698;29;20034;-76
2021/01/11 07:26:39;;;;;;;0.10;0.05;;;21.20;33.70;;;;;;4819522;29;20390;-75
2021/01/11 07:29:14;;;;;;;0.45;0.20;;;21.20;33.70;;;;;;4807972;29;20042;-75
2021/01/11 07:31:44;;;;;;;0.20;0.20;;;21.30;33.70;;;;;;4816026;29;20018;-75
2021/01/11 07:34:10;;;;;;;8.20;0.80;;;21.30;33.70;;;;;;4797798;29;20049;-75
2021/01/11 07:36:40;;;;;;;0.70;0.10;;;21.30;33.70;;;;;;4795013;29;20053;-76
2021/01/11 07:39:10;;;;;;;0.55;0.43;;;21.30;33.80;;;;;;4791151;29;20065;-75
2021/01/11 07:41:46;;;;;;;0.68;0.10;;;21.30;33.80;;;;;;4807119;29;20019;-72
2021/01/11 07:44:22;;;;;;;0.88;0.20;;;21.30;33.80;;;;;;4790272;29;20047;-72
2021/01/11 07:47:07;;;;;;;0.20;0.20;;;21.30;33.80;;;;;;4795129;29;20419;-71
2021/01/11 07:49:35;;;;;;;0.68;0.47;;;21.30;33.70;;;;;;4831028;29;20106;-71
2021/01/11 07:52:03;;;;;;;0.00;0.00;;;21.20;33.80;;;;;;4809289;29;20129;-75
2021/01/11 07:54:29;;;;;;;0.35;0.32;;;21.20;33.80;;;;;;4803754;29;20034;-75
2021/01/11 07:56:54;;;;;;;0.70;0.45;;;21.20;33.80;;;;;;4782753;29;20033;-74
2021/01/11 07:59:20;;;;;;;0.80;0.65;;;21.20;33.80;;;;;;4798205;29;21058;-75
2021/01/11 08:01:47;;;;;;;1.55;0.30;;;21.20;33.80;;;;;;4782773;29;20137;-75
2021/01/11 08:04:13;;;;;;;0.00;0.00;;;21.20;33.80;;;;;;4805778;29;20069;-75
2021/01/11 08:06:50;;;;;;;0.10;0.00;;;21.20;33.80;;;;;;4803361;29;20047;-74
2021/01/11 08:09:17;;;;;;;0.38;0.38;;;21.20;33.90;;;;;;4805833;29;20124;-75
2021/01/11 08:12:07;;;;;;;0.20;0.10;;;21.20;33.90;;;;;;4821821;29;20191;-75
2021/01/11 08:14:33;;;;;;;0.10;0.10;;;21.20;33.90;;;;;;4826406;29;20031;-75
2021/01/11 08:16:59;;;;;;;0.80;0.40;;;21.20;34.00;;;;;;4805458;29;20026;-75
2021/01/11 08:19:24;;;;;;;0.10;0.00;;;21.20;34.00;;;;;;4781401;29;20030;-75
2021/01/11 08:21:56;;;;;;;0.08;0.08;;;21.10;34.00;;;;;;4821597;29;21877;-74
2021/01/11 08:24:22;;;;;;;0.25;0.15;;;21.10;33.90;;;;;;4802766;29;20053;-75
2021/01/11 08:27:07;;;;;;;0.00;0.00;;;21.10;33.90;;;;;;4822246;29;20035;-75
2021/01/11 08:29:37;;;;;;;0.10;0.10;;;21.10;34.00;;;;;;4836499;29;20121;-75
2021/01/11 08:32:10;;;;;;;0.28;0.28;;;21.10;34.10;;;;;;4817307;29;20283;-75
2021/01/11 08:34:35;;;;;;;0.40;0.10;;;21.10;34.10;;;;;;4797742;29;20027;-74
2021/01/11 08:37:29;;;;;;;6.03;1.35;;;21.10;34.10;;;;;;4830478;29;20099;-75
2021/01/11 08:40:01;;;;;;;0.10;0.10;;;21.10;34.10;;;;;;4831501;29;20078;-75
2021/01/11 08:42:27;;;;;;;0.10;0.10;;;21.10;34.10;;;;;;4815173;29;20060;-75
2021/01/11 08:44:52;;;;;;;0.08;0.08;;;21.10;34.10;;;;;;4802187;29;20034;-74
2021/01/11 08:47:26;;;;;;;0.22;0.22;;;21.10;34.10;;;;;;4827451;29;20042;-75
2021/01/11 08:49:59;;;;;;;0.00;0.00;;;21.10;34.20;;;;;;4798033;29;20015;-75
2021/01/11 08:52:31;;;;;;;0.20;0.20;;;21.10;34.20;;;;;;4799873;29;20111;-75
2021/01/11 08:55:10;;;;;;;0.20;0.20;;;21.10;34.20;;;;;;4830480;29;20051;-75
2021/01/11 08:57:36;;;;;;;0.00;0.00;;;21.10;34.20;;;;;;4833216;29;20038;-75
2021/01/11 09:00:07;;;;;;;0.10;0.10;;;21.10;34.20;;;;;;4817940;29;20027;-75
2021/01/11 09:02:33;;;;;;;0.10;0.10;;;21.10;34.20;;;;;;4825558;29;20042;-75
2021/01/11 09:05:47;;;;;;;0.28;0.28;;;21.10;34.10;;;;;;4831068;29;20027;-75
2021/01/11 09:08:15;;;;;;;0.13;0.13;;;21.10;34.20;;;;;;4778470;29;20054;-75
2021/01/11 09:10:42;;;;;;;0.17;0.17;;;21.10;34.20;;;;;;4797072;29;20035;-75
2021/01/11 09:13:21;;;;;;;0.15;0.15;;;21.10;34.20;;;;;;4797026;29;20042;-74
2021/01/11 09:15:47;;;;;;;0.00;0.00;;;21.10;34.20;;;;;;4809784;29;20030;-75
2021/01/11 09:18:13;;;;;;;0.90;0.45;;;21.10;34.20;;;;;;4818540;29;20407;-74
2021/01/11 09:20:40;;;;;;;2.30;0.85;;;21.10;34.20;;;;;;4830226;29;20102;-75
2021/01/11 09:23:08;;;;;;;0.20;0.10;;;21.10;34.20;;;;;;4809670;29;20076;-75
2021/01/11 09:25:34;;;;;;;0.35;0.30;;;21.20;34.20;;;;;;4799887;29;20423;-74
2021/01/11 09:28:01;;;;;;;0.00;0.00;;;21.20;34.10;;;;;;4801096;29;20044;-75
2021/01/11 09:30:28;;;;;;;0.10;0.10;;;21.20;34.00;;;;;;4819439;29;20039;-75
2021/01/11 09:32:53;;;;;;;0.00;0.00;;;21.30;34.00;;;;;;4797424;29;20058;-74
2021/01/11 09:35:19;;;;;;;0.55;0.20;;;21.30;34.00;;;;;;4811025;29;20035;-75
2021/01/11 09:37:45;;;;;;;0.10;0.10;;;21.30;33.90;;;;;;4804577;29;20027;-75
2021/01/11 09:40:11;;;;;;;0.28;0.25;;;21.20;33.90;;;;;;4827566;29;20086;-75
2021/01/11 09:42:36;;;;;;;0.20;0.17;;;21.20;33.90;;;;;;4797632;29;20022;-75
2021/01/11 09:45:08;;;;;;;0.17;0.10;;;21.30;34.00;;;;;;4829533;29;20030;-75
2021/01/11 09:47:34;;;;;;;0.40;0.38;;;21.20;33.90;;;;;;4826236;29;20038;-75
2021/01/11 09:50:00;;;;;;;0.00;0.00;;;21.20;33.90;;;;;;4822171;29;20149;-75
2021/01/11 09:52:26;;;;;;;0.00;0.00;;;21.20;34.00;;;;;;4819440;29;20023;-75
2021/01/11 09:54:51;;;;;;;0.00;0.00;;;21.30;34.10;;;;;;4819942;29;20069;-75
2021/01/11 09:57:17;;;;;;;0.00;0.00;;;21.20;34.00;;;;;;4833988;29;20050;-75
2021/01/11 09:59:42;;;;;;;0.10;0.10;;;21.30;34.10;;;;;;4824496;29;20050;-74
2021/01/11 10:02:09;;;;;;;0.15;0.15;;;21.30;34.20;;;;;;4829635;29;20035;-75
2021/01/11 10:04:34;;;;;;;2.28;0.10;;;21.30;34.10;;;;;;4833660;29;20042;-74
2021/01/11 10:07:00;;;;;;;0.00;0.00;;;21.30;34.20;;;;;;4838882;29;20054;-74
2021/01/11 10:09:29;;;;;;;0.55;0.55;;;21.20;34.10;;;;;;4798461;29;20074;-74
2021/01/11 10:11:56;;;;;;;0.35;0.10;;;21.30;34.20;;;;;;4809334;29;20478;-75
2021/01/11 10:14:22;;;;;;;0.22;0.22;;;21.20;34.00;;;;;;4839206;29;20034;-75
2021/01/11 10:16:49;;;;;;;0.10;0.10;;;21.20;34.10;;;;;;4803346;29;20095;-75
2021/01/11 10:20:11;;;;;;;0.10;0.10;;;21.30;34.20;;;;;;4813263;29;20030;-73
2021/01/11 10:22:38;;;;;;;0.00;0.00;;;21.20;34.10;;;;;;4820737;29;20037;-74
2021/01/11 10:25:06;;;;;;;0.10;0.10;;;21.20;34.10;;;;;;4800715;29;20038;-75
2021/01/11 10:27:32;;;;;;;0.40;0.25;;;21.30;34.20;;;;;;4800570;29;20121;-75
2021/01/11 10:29:58;;;;;;;0.20;0.20;;;21.20;34.10;;;;;;4829515;29;20060;-74
2021/01/11 10:32:24;;;;;;;0.00;0.00;;;21.10;34.00;;;;;;4806351;29;20042;-75
2021/01/11 10:34:49;;;;;;;0.00;0.00;;;21.20;34.00;;;;;;4833484;29;20041;-75
2021/01/11 10:37:15;;;;;;;0.00;0.00;;;21.20;34.10;;;;;;4825634;29;20026;-74
2021/01/11 10:39:40;;;;;;;0.00;0.00;;;21.10;34.20;;;;;;4834964;29;20035;-75
2021/01/11 10:42:15;;;;;;;0.00;0.00;;;21.10;34.20;;;;;;4828212;29;20426;-76
2021/01/11 10:44:41;;;;;;;0.00;0.00;;;21.20;34.20;;;;;;4811006;29;20038;-75
2021/01/11 10:47:06;;;;;;;0.45;0.45;;;21.20;34.20;;;;;;4829514;29;20414;-74
2021/01/11 10:49:32;;;;;;;0.00;0.00;;;21.10;34.20;;;;;;4823608;29;20083;-74
2021/01/11 10:52:00;;;;;;;0.43;0.32;;;21.10;34.20;;;;;;4787348;29;20183;-74
2021/01/11 10:54:26;;;;;;;0.10;0.10;;;21.10;34.30;;;;;;4819538;29;20027;-74
2021/01/11 10:56:52;;;;;;;0.28;0.28;;;21.10;34.30;;;;;;4777809;29;20137;-74
2021/01/11 10:59:19;;;;;;;0.05;0.03;;;21.10;34.40;;;;;;4806747;29;20523;-74
2021/01/11 11:01:44;;;;;;;0.15;0.15;;;21.10;34.40;;;;;;4820320;29;20495;-74
2021/01/11 11:04:11;;;;;;;0.10;0.10;;;21.10;34.50;;;;;;4794730;29;20042;-75
2021/01/11 11:06:36;;;;;;;0.00;0.00;;;21.10;34.50;;;;;;4787947;29;20046;-75
2021/01/11 11:09:02;;;;;;;2.05;1.08;;;21.10;34.50;;;;;;4818740;29;20031;-74
2021/01/11 11:11:27;;;;;;;0.50;0.50;;;21.10;34.50;;;;;;4826903;29;20560;-74
2021/01/11 11:13:53;;;;;;;1.08;0.60;;;21.00;34.40;;;;;;4816415;29;20539;-74
2021/01/11 11:16:19;;;;;;;2.53;0.93;;;21.00;35.10;;;;;;4799809;29;20420;-74
2021/01/11 11:18:53;;;;;;;1.25;0.35;;;21.10;34.50;;;;;;4804633;29;20185;-74
2021/01/11 11:21:19;;;;;;;0.65;0.65;;;21.00;34.50;;;;;;4821076;29;20045;-75
2021/01/11 11:23:44;;;;;;;1.48;1.10;;;21.00;34.60;;;;;;4823142;29;20030;-75
2021/01/11 11:26:10;;;;;;;0.77;0.77;;;21.00;34.60;;;;;;4807427;29;20069;-75
2021/01/11 11:28:36;;;;;;;1.30;0.80;;;21.00;34.60;;;;;;4800273;29;20062;-75
2021/01/11 11:34:24;;;;;;;2.70;0.77;;;21.00;34.60;;;;;;4822928;29;20118;-75
2021/01/11 11:36:50;;;;;;;1.20;0.90;;;21.00;34.70;;;;;;4822584;29;20507;-75
2021/01/11 11:39:16;;;;;;;0.80;0.68;;;21.00;34.50;;;;;;4799696;29;20121;-75
2021/01/11 11:41:42;;;;;;;1.55;0.65;;;21.00;34.40;;;;;;4817886;29;20113;-75
2021/01/11 11:44:07;;;;;;;1.42;0.80;;;21.00;34.50;;;;;;4820987;29;20034;-75
2021/01/11 11:46:33;;;;;;;0.82;0.77;;;21.10;34.50;;;;;;4805433;29;20524;-75
2021/01/11 11:48:58;;;;;;;1.30;0.98;;;21.10;34.60;;;;;;4823470;29;20515;-75
2021/01/11 11:51:27;;;;;;;2.50;0.98;;;21.00;34.50;;;;;;4804215;29;20025;-74
2021/01/11 11:53:52;;;;;;;3.80;1.17;;;21.00;34.50;;;;;;4790124;29;20030;-74
2021/01/11 11:56:18;;;;;;;1.10;1.00;;;21.00;34.40;;;;;;4806690;29;20036;-75
2021/01/11 11:58:43;;;;;;;1.00;0.75;;;21.00;34.40;;;;;;4817741;29;20026;-75
2021/01/11 12:01:09;;;;;;;1.85;0.90;;;21.00;34.50;;;;;;4821545;29;20042;-74
2021/01/11 12:03:38;;;;;;;1.90;0.80;;;21.10;34.60;;;;;;4808728;29;20041;-75
2021/01/11 12:06:06;;;;;;;1.17;0.50;;;21.10;34.40;;;;;;4808509;29;20519;-74
2021/01/11 12:08:32;;;;;;;1.10;0.98;;;21.00;34.50;;;;;;4777660;29;20049;-74
2021/01/11 12:10:58;;;;;;;0.55;0.55;;;21.00;34.40;;;;;;4809921;29;20046;-75
2021/01/11 12:16:49;;;;;;;1.23;0.95;;;21.00;34.40;;;;;;4826027;29;20069;-75
2021/01/11 12:19:14;;;;;;;1.35;0.98;;;21.00;35.20;;;;;;4804746;29;20419;-75
2021/01/11 12:21:40;;;;;;;1.30;0.90;;;21.00;34.40;;;;;;4792154;29;20030;-75
2021/01/11 12:24:09;;;;;;;1.48;1.30;;;21.00;34.30;;;;;;4825698;29;20113;-73
2021/01/11 12:26:50;;;;;;;1.10;1.00;;;21.00;34.40;;;;;;4824464;29;20042;-74
2021/01/11 12:29:16;;;;;;;1.80;1.08;;;21.00;35.10;;;;;;4792339;29;20053;-76
2021/01/11 12:31:42;;;;;;;1.02;0.95;;;20.90;34.50;;;;;;4824449;29;20171;-75
2021/01/11 12:34:08;;;;;;;2.40;1.30;;;20.90;34.70;;;;;;4776358;29;20047;-76
2021/01/11 12:36:35;;;;;;;1.60;1.00;;;20.90;35.20;;;;;;4824920;29;20030;-76
2021/01/11 12:39:35;;;;;;;2.38;1.48;;;20.90;34.60;;;;;;4825046;29;20026;-74
2021/01/11 12:42:03;;;;;;;5.05;1.38;;;20.90;34.60;;;;;;4823435;29;20034;-74
2021/01/11 12:44:28;;;;;;;1.35;1.08;;;20.90;34.60;;;;;;4808120;29;20081;-75
2021/01/11 12:46:55;;;;;;;1.10;1.00;;;20.90;34.70;;;;;;4823949;29;20125;-75
2021/01/11 12:49:21;;;;;;;1.52;0.70;;;20.90;34.70;;;;;;4808906;29;20033;-75
2021/01/11 12:51:47;;;;;;;0.98;0.80;;;20.90;34.80;;;;;;4822920;29;20511;-75
2021/01/11 12:54:12;;;;;;;2.72;1.00;;;20.90;34.80;;;;;;4806891;29;20728;-76
2021/01/11 12:56:38;;;;;;;4.43;1.33;;;21.00;35.00;;;;;;4822269;29;20147;-76
2021/01/11 12:59:03;;;;;;;0.80;0.80;;;20.90;34.80;;;;;;4807057;29;20045;-75
2021/01/11 13:01:30;;;;;;;2.25;1.00;;;20.90;34.90;;;;;;4822438;29;20027;-74
2021/01/11 13:03:57;;;;;;;2.25;0.75;;;20.90;34.90;;;;;;4802837;29;20499;-75